AirNav   Pilot Hours Calculator
 
 1556 users online  

4WA4 Windsock Airport
Lopez, Washington, USA

GOING TO LOPEZ?


FAA INFORMATION EFFECTIVE 04 NOVEMBER 2021

Location

FAA Identifier: 4WA4
Lat/Long: 48-32-29.3640N 122-53-14.6430W
48-32.489400N 122-53.244050W
48.5414900,-122.8874008
(estimated)
Elevation: 30 ft. / 9 m (estimated)
Variation: 21E (1985)
From city: 4 miles SW of LOPEZ, WA
Time zone: UTC -7 (UTC -8 during Standard Time)
Zip code: 98261

Airport Operations

Airport use: Private use. Permission required prior to landing
Activation date: 05/1975
Control tower: no
ARTCC: SEATTLE CENTER
FSS: SEATTLE FLIGHT SERVICE STATION
Attendance: CONTINUOUS
Wind indicator: yes
Segmented circle: yes
Landing fee: yes

Airport Communications

WX ASOS at FHR (6 nm W): 135.675 (360-378-8491)
WX AWOS-3 at ORS (10 nm N): 135.425 (360-376-6045)
WX ASOS at NUW (15 nm SE): PHONE 360-257-8813
WX AWOS-3 at BVS (19 nm E): 121.125 (360-757-7767)
WX AWOS-3 at OKH (19 nm SE): 132.775 (360-675-8431)

Nearby radio navigation aids

VOR radial/distance  VOR name  Freq  Var
CVVr321/19.0PENN COVE VOR/DME117.2019E
YYJr098/26.2VICTORIA VOR/DME113.7017E
HUHr187/27.1WHATCOM VORTAC113.0020E
YVRr145/33.8VANCOUVER VOR/DME115.9017E

 
NDB name  Hdg/Dist  Freq  Var  ID
FRIDAY HARBOR055/5.728417EFHR ..-. .... .-.
SKAGIT/BAY VIEW267/19.124016EBVS -... ...- ...
EDIZ HOOK023/31.733817ENOW -. --- .--

Airport Services

Runway Information

Runway 2/20

Dimensions: 1850 x 75 ft. / 564 x 23 m
Surface: turf
RUNWAY 2  RUNWAY 20
Traffic pattern: leftright
Obstructions: 4 ft. fence4 ft. fence, marked and lighted

Airport Ownership and Management from official FAA records

Ownership: Privately-owned
Owner: L DWIGHT LEWIS JR
200 DAISY LANE
LOPEZ ISLAND, WA 98261
Phone (360) 468-2412
Manager: L DWIGHT LEWIS JR
200 DAISY LANE
LOPEZ ISLAND, WA 98261
Phone (360) 468-2412

Airport Operational Statistics

Aircraft based on the field: 1
Single engine airplanes: 1
    

Additional Remarks

DEER MAY BE ON RWY.
FOR CD CTC SEATTLE ARTCC AT 253-351-3694.

Instrument Procedures

There are no published instrument procedures at 4WA4.

Some nearby airports with instrument procedures:

KFHR - Friday Harbor Airport (6 nm W)
KORS - Orcas Island Airport (10 nm N)
KNUW - Whidbey Island Naval Air Station (Ault Field) (15 nm SE)
KBVS - Skagit Regional Airport (19 nm E)
KOKH - AJ Eisenberg Airport (19 nm SE)
 
Loc | Ops | Rwys | IFR | FBO | Links
Com | Nav | Svcs | Stats | Notes
Area around 4WA4 (Windsock Airport)
 
Road maps at: MapQuest Bing Google
 
Aerial photo
WARNING: Photo may not be current or correct
Aerial photo of 4WA4 (Windsock Airport)
Do you have a better or more recent aerial photo of Windsock Airport that you would like to share? If so, please send us your photo.

 
Sectional chart

 
Airport distance calculator
Flying to Windsock Airport? Find the distance to fly.

From to 4WA4

Sunrise and sunset
Times for 29-Nov-2021
 Local
(UTC-8)
 Zulu
(UTC)
Morning civil twilight07:0515:05
Sunrise07:4115:41
Sunset16:1900:19
Evening civil twilight16:5500:55

Current date and time
Zulu (UTC)  30-Nov-2021 01:21:47
Local (UTC-8)  29-Nov-2021 17:21:47
 
METAR
KFHR 
6nm W 
300053Z AUTO 00000KT 10SM BKN021 11/09 A3021 RMK AO2 SLP228 T01060094 TSNO
KORS 
10nm N 
300055Z AUTO 17009KT 10SM BKN060 13/11 A3018 RMK AO2
CWZO 
14nm W 
300000Z AUTO 19008KT RMK AO1
CWEZ 
15nm NW 
300000Z AUTO 24008KT 11/10 RMK AO1 SLP220 T01080097 58006
KNUW 
15nm SE 
300056Z 13004KT 10SM FEW017 BKN025 BKN070 OVC180 13/11 A3023 RMK AO2 SLP235 T01330106 $
CWYJ 
17nm W 
300000Z AUTO 08001KT 10/10 RMK AO1 SLP225 T01000100 58007
CWLM 
19nm SW 
300000Z AUTO 10005KT 10/10 RMK AO1 SLP221 T00990095 58007
CYWH 
19nm SW 
300000Z VRB02KT 15SM FEW002 BKN055 BKN200 11/10 A3019 RMK SF2SC3CI2 VIS SW-W 3 SLP226
KBVS 
19nm E 
300055Z AUTO 13005KT 8SM OVC025 14/11 A3021 RMK A01
TAF
KNUW 
15nm SE 
2923/3023 15008KT 9999 VCSH SCT015 SCT035 BKN075 BKN180 OVC250 QNH3021INS TEMPO 3003/3009 12009KT 9999 SCT005 BKN015 OVC070 FM300700 VRB06KT 9000 BR BCFG SCT005 BKN050 OVC120 QNH3013INS TEMPO 3007/3013 17007KT 3200 -DZ BR BKN004 OVC010 FM301300 16012KT 6000 -RA BR SCT004 BKN015 OVC050 640809 540109 QNH3012INS FM301700 15020G32KT 8000 -RA BR FEW010 SCT033 OVC045 640906 540009 QNH3009INS TEMPO 3017/3023 15015G25KT 3200 RA BR SCT010 BKN015 OVC032 T14/2922Z T09/3013Z FS30046
CYWH 
19nm SW 
292108Z 2921/3005 12005KT 2SM BR SCT002 BKN012 BECMG 2921/2923 6SM BR FEW006 SCT012 BKN025 FM292300 12005KT P6SM FEW006 SCT015 BKN025 TEMPO 2923/3005 4SM BR SCT006 BKN015 RMK NXT FCST BY 300000Z
NOTAMs
Click for the latest NOTAMs
NOTAMs are issued by the DoD/FAA and will open in a separate window not controlled by AirNav.

 

 
 

Would you like to see your business listed on this page?

 If your business provides an interesting product or service to pilots, flight crews, aircraft, or users of the Windsock Airport, you should consider listing it here.  To start the listing process, click on the button below
 
Add a business
 

Other Pages about Windsock Airport

Update a link
 
Copyright © AirNav, LLC. All rights reserved. Privacy Policy  Contact